sensor_id;sensor_type;location;lat;lon;timestamp;P1;durP1;ratioP1;P2;durP2;ratioP2
19621;SDS011;9958;33.196;-97.114;2023-05-02T00:02:14;0.60;;;0.60;;
19621;SDS011;9958;33.196;-97.114;2023-05-02T00:04:43;2.05;;;1.10;;
19621;SDS011;9958;33.196;-97.114;2023-05-02T00:07:11;1.08;;;0.60;;
19621;SDS011;9958;33.196;-97.114;2023-05-02T00:09:39;2.90;;;1.40;;
19621;SDS011;9958;33.196;-97.114;2023-05-02T00:12:08;0.90;;;0.90;;
19621;SDS011;9958;33.196;-97.114;2023-05-02T00:14:36;0.73;;;0.50;;
19621;SDS011;9958;33.196;-97.114;2023-05-02T00:17:06;1.25;;;0.80;;
19621;SDS011;9958;33.196;-97.114;2023-05-02T00:19:36;2.47;;;0.93;;
19621;SDS011;9958;33.196;-97.114;2023-05-02T00:22:05;1.55;;;0.80;;
19621;SDS011;9958;33.196;-97.114;2023-05-02T00:24:33;2.25;;;0.55;;
19621;SDS011;9958;33.196;-97.114;2023-05-02T00:27:02;2.08;;;0.90;;
19621;SDS011;9958;33.196;-97.114;2023-05-02T00:29:30;1.55;;;0.60;;
19621;SDS011;9958;33.196;-97.114;2023-05-02T00:31:59;0.60;;;0.60;;
19621;SDS011;9958;33.196;-97.114;2023-05-02T00:34:29;0.70;;;0.70;;
19621;SDS011;9958;33.196;-97.114;2023-05-02T00:36:58;0.57;;;0.57;;
19621;SDS011;9958;33.196;-97.114;2023-05-02T00:39:26;2.78;;;0.70;;
19621;SDS011;9958;33.196;-97.114;2023-05-02T00:41:57;1.55;;;0.52;;
19621;SDS011;9958;33.196;-97.114;2023-05-02T00:44:26;1.67;;;0.47;;
19621;SDS011;9958;33.196;-97.114;2023-05-02T00:46:55;0.82;;;0.70;;
19621;SDS011;9958;33.196;-97.114;2023-05-02T00:49:24;2.33;;;0.68;;
19621;SDS011;9958;33.196;-97.114;2023-05-02T00:51:53;0.85;;;0.80;;
19621;SDS011;9958;33.196;-97.114;2023-05-02T00:54:22;0.70;;;0.70;;
19621;SDS011;9958;33.196;-97.114;2023-05-02T00:56:50;0.82;;;0.70;;
19621;SDS011;9958;33.196;-97.114;2023-05-02T00:59:19;4.25;;;0.82;;
19621;SDS011;9958;33.196;-97.114;2023-05-02T01:01:51;1.13;;;0.50;;
19621;SDS011;9958;33.196;-97.114;2023-05-02T01:04:27;1.65;;;0.90;;
19621;SDS011;9958;33.196;-97.114;2023-05-02T01:07:12;0.55;;;0.55;;
19621;SDS011;9958;33.196;-97.114;2023-05-02T01:09:51;0.90;;;0.90;;
19621;SDS011;9958;33.196;-97.114;2023-05-02T01:12:27;1.05;;;0.70;;
19621;SDS011;9958;33.196;-97.114;2023-05-02T01:14:59;3.15;;;0.70;;
19621;SDS011;9958;33.196;-97.114;2023-05-02T01:17:32;1.17;;;0.70;;
19621;SDS011;9958;33.196;-97.114;2023-05-02T01:20:02;0.85;;;0.80;;
19621;SDS011;9958;33.196;-97.114;2023-05-02T01:22:34;2.38;;;0.85;;
19621;SDS011;9958;33.196;-97.114;2023-05-02T01:25:09;3.28;;;0.75;;
19621;SDS011;9958;33.196;-97.114;2023-05-02T01:27:48;1.08;;;0.90;;
19621;SDS011;9958;33.196;-97.114;2023-05-02T01:30:25;0.90;;;0.90;;
19621;SDS011;9958;33.196;-97.114;2023-05-02T01:32:56;2.80;;;0.90;;
19621;SDS011;9958;33.196;-97.114;2023-05-02T01:35:26;2.03;;;0.80;;
19621;SDS011;9958;33.196;-97.114;2023-05-02T01:37:56;1.30;;;0.80;;
19621;SDS011;9958;33.196;-97.114;2023-05-02T01:40:27;1.27;;;0.85;;
19621;SDS011;9958;33.196;-97.114;2023-05-02T01:42:57;2.17;;;0.80;;
19621;SDS011;9958;33.196;-97.114;2023-05-02T01:45:31;0.73;;;0.73;;
19621;SDS011;9958;33.196;-97.114;2023-05-02T01:48:02;0.52;;;0.52;;
19621;SDS011;9958;33.196;-97.114;2023-05-02T01:50:33;0.88;;;0.88;;
19621;SDS011;9958;33.196;-97.114;2023-05-02T01:53:03;0.93;;;0.70;;
19621;SDS011;9958;33.196;-97.114;2023-05-02T01:55:38;0.95;;;0.90;;
19621;SDS011;9958;33.196;-97.114;2023-05-02T01:58:10;3.60;;;0.80;;
19621;SDS011;9958;33.196;-97.114;2023-05-02T02:00:41;1.17;;;1.08;;
19621;SDS011;9958;33.196;-97.114;2023-05-02T02:03:11;0.88;;;0.85;;
19621;SDS011;9958;33.196;-97.114;2023-05-02T02:05:41;2.47;;;0.88;;
19621;SDS011;9958;33.196;-97.114;2023-05-02T02:08:09;2.17;;;0.90;;
19621;SDS011;9958;33.196;-97.114;2023-05-02T02:10:39;0.80;;;0.77;;
19621;SDS011;9958;33.196;-97.114;2023-05-02T02:13:12;0.60;;;0.60;;
19621;SDS011;9958;33.196;-97.114;2023-05-02T02:15:46;1.05;;;0.93;;
19621;SDS011;9958;33.196;-97.114;2023-05-02T02:18:18;3.20;;;0.90;;
19621;SDS011;9958;33.196;-97.114;2023-05-02T02:20:49;4.15;;;0.95;;
19621;SDS011;9958;33.196;-97.114;2023-05-02T02:23:20;1.20;;;1.02;;
19621;SDS011;9958;33.196;-97.114;2023-05-02T02:25:52;1.45;;;0.80;;
19621;SDS011;9958;33.196;-97.114;2023-05-02T02:28:22;1.27;;;0.70;;
19621;SDS011;9958;33.196;-97.114;2023-05-02T02:30:52;1.50;;;0.60;;
19621;SDS011;9958;33.196;-97.114;2023-05-02T02:33:21;0.55;;;0.55;;
19621;SDS011;9958;33.196;-97.114;2023-05-02T02:35:53;2.50;;;0.90;;
19621;SDS011;9958;33.196;-97.114;2023-05-02T02:38:28;1.25;;;0.73;;
19621;SDS011;9958;33.196;-97.114;2023-05-02T02:41:05;1.42;;;0.80;;
19621;SDS011;9958;33.196;-97.114;2023-05-02T02:43:43;0.82;;;0.80;;
19621;SDS011;9958;33.196;-97.114;2023-05-02T02:46:24;1.35;;;0.70;;
19621;SDS011;9958;33.196;-97.114;2023-05-02T02:49:06;2.30;;;0.80;;
19621;SDS011;9958;33.196;-97.114;2023-05-02T02:51:43;1.00;;;0.90;;
19621;SDS011;9958;33.196;-97.114;2023-05-02T02:54:17;1.15;;;1.05;;
19621;SDS011;9958;33.196;-97.114;2023-05-02T02:56:52;0.80;;;0.80;;
19621;SDS011;9958;33.196;-97.114;2023-05-02T02:59:27;5.63;;;1.15;;
19621;SDS011;9958;33.196;-97.114;2023-05-02T03:02:01;3.72;;;1.25;;
19621;SDS011;9958;33.196;-97.114;2023-05-02T03:04:33;1.20;;;0.82;;
19621;SDS011;9958;33.196;-97.114;2023-05-02T03:07:04;1.60;;;1.10;;
19621;SDS011;9958;33.196;-97.114;2023-05-02T03:09:41;1.77;;;0.80;;
19621;SDS011;9958;33.196;-97.114;2023-05-02T03:12:10;1.30;;;0.95;;
19621;SDS011;9958;33.196;-97.114;2023-05-02T03:14:39;4.07;;;1.10;;
19621;SDS011;9958;33.196;-97.114;2023-05-02T03:17:10;2.00;;;1.10;;
19621;SDS011;9958;33.196;-97.114;2023-05-02T03:19:38;4.25;;;1.30;;
19621;SDS011;9958;33.196;-97.114;2023-05-02T03:22:06;2.20;;;1.10;;
19621;SDS011;9958;33.196;-97.114;2023-05-02T03:24:34;1.83;;;1.30;;
19621;SDS011;9958;33.196;-97.114;2023-05-02T03:27:03;2.58;;;1.60;;
19621;SDS011;9958;33.196;-97.114;2023-05-02T03:29:31;3.70;;;1.00;;
19621;SDS011;9958;33.196;-97.114;2023-05-02T03:31:59;3.08;;;1.20;;
19621;SDS011;9958;33.196;-97.114;2023-05-02T03:34:29;2.38;;;1.23;;
19621;SDS011;9958;33.196;-97.114;2023-05-02T03:36:58;3.40;;;1.08;;
19621;SDS011;9958;33.196;-97.114;2023-05-02T03:39:26;1.30;;;1.20;;
19621;SDS011;9958;33.196;-97.114;2023-05-02T03:41:54;5.18;;;1.00;;
19621;SDS011;9958;33.196;-97.114;2023-05-02T03:44:23;3.22;;;1.20;;
19621;SDS011;9958;33.196;-97.114;2023-05-02T03:46:51;39.38;;;16.80;;
19621;SDS011;9958;33.196;-97.114;2023-05-02T03:49:19;36.10;;;17.15;;
19621;SDS011;9958;33.196;-97.114;2023-05-02T03:51:49;28.60;;;16.05;;
19621;SDS011;9958;33.196;-97.114;2023-05-02T03:54:18;30.02;;;19.52;;
19621;SDS011;9958;33.196;-97.114;2023-05-02T03:56:46;33.05;;;26.58;;
19621;SDS011;9958;33.196;-97.114;2023-05-02T03:59:14;68.15;;;51.22;;
19621;SDS011;9958;33.196;-97.114;2023-05-02T04:01:43;50.83;;;40.38;;
19621;SDS011;9958;33.196;-97.114;2023-05-02T04:04:11;26.90;;;22.33;;
19621;SDS011;9958;33.196;-97.114;2023-05-02T04:06:40;12.57;;;10.13;;
19621;SDS011;9958;33.196;-97.114;2023-05-02T04:09:10;6.55;;;4.38;;
19621;SDS011;9958;33.196;-97.114;2023-05-02T04:11:38;4.13;;;3.38;;
19621;SDS011;9958;33.196;-97.114;2023-05-02T04:14:07;12.93;;;5.75;;
19621;SDS011;9958;33.196;-97.114;2023-05-02T04:16:35;20.95;;;10.75;;
19621;SDS011;9958;33.196;-97.114;2023-05-02T04:19:03;20.42;;;11.60;;
19621;SDS011;9958;33.196;-97.114;2023-05-02T04:21:32;34.65;;;19.65;;
19621;SDS011;9958;33.196;-97.114;2023-05-02T04:24:03;47.35;;;24.50;;
19621;SDS011;9958;33.196;-97.114;2023-05-02T04:26:33;38.58;;;21.38;;
19621;SDS011;9958;33.196;-97.114;2023-05-02T04:29:02;70.95;;;41.40;;
19621;SDS011;9958;33.196;-97.114;2023-05-02T04:31:30;118.55;;;65.68;;
19621;SDS011;9958;33.196;-97.114;2023-05-02T04:33:59;144.68;;;81.70;;
19621;SDS011;9958;33.196;-97.114;2023-05-02T04:36:28;108.50;;;60.85;;
19621;SDS011;9958;33.196;-97.114;2023-05-02T04:38:57;76.28;;;41.17;;
19621;SDS011;9958;33.196;-97.114;2023-05-02T04:41:25;48.60;;;24.92;;
19621;SDS011;9958;33.196;-97.114;2023-05-02T04:43:56;28.80;;;15.18;;
19621;SDS011;9958;33.196;-97.114;2023-05-02T04:46:24;15.00;;;8.05;;
19621;SDS011;9958;33.196;-97.114;2023-05-02T04:48:52;8.52;;;6.20;;
19621;SDS011;9958;33.196;-97.114;2023-05-02T04:51:21;9.52;;;5.35;;
19621;SDS011;9958;33.196;-97.114;2023-05-02T04:53:49;6.15;;;4.30;;
19621;SDS011;9958;33.196;-97.114;2023-05-02T04:56:18;7.63;;;3.75;;
19621;SDS011;9958;33.196;-97.114;2023-05-02T04:58:46;4.43;;;3.25;;
19621;SDS011;9958;33.196;-97.114;2023-05-02T05:01:16;3.42;;;2.88;;
19621;SDS011;9958;33.196;-97.114;2023-05-02T05:03:44;4.18;;;2.95;;
19621;SDS011;9958;33.196;-97.114;2023-05-02T05:06:13;2.53;;;2.33;;
19621;SDS011;9958;33.196;-97.114;2023-05-02T05:08:41;2.13;;;1.92;;
19621;SDS011;9958;33.196;-97.114;2023-05-02T05:11:10;4.68;;;1.55;;
19621;SDS011;9958;33.196;-97.114;2023-05-02T05:13:39;5.10;;;2.20;;
19621;SDS011;9958;33.196;-97.114;2023-05-02T05:16:07;3.28;;;1.67;;
19621;SDS011;9958;33.196;-97.114;2023-05-02T05:18:38;4.32;;;1.42;;
19621;SDS011;9958;33.196;-97.114;2023-05-02T05:21:06;4.53;;;1.40;;
19621;SDS011;9958;33.196;-97.114;2023-05-02T05:23:35;1.42;;;1.33;;
19621;SDS011;9958;33.196;-97.114;2023-05-02T05:26:10;2.17;;;1.35;;
19621;SDS011;9958;33.196;-97.114;2023-05-02T05:28:39;1.58;;;1.27;;
19621;SDS011;9958;33.196;-97.114;2023-05-02T05:31:09;3.35;;;1.52;;
19621;SDS011;9958;33.196;-97.114;2023-05-02T05:33:40;2.88;;;1.50;;
19621;SDS011;9958;33.196;-97.114;2023-05-02T05:36:08;4.05;;;1.50;;
19621;SDS011;9958;33.196;-97.114;2023-05-02T05:38:38;4.97;;;1.83;;
19621;SDS011;9958;33.196;-97.114;2023-05-02T05:41:07;2.10;;;1.83;;
19621;SDS011;9958;33.196;-97.114;2023-05-02T05:43:35;5.97;;;1.95;;
19621;SDS011;9958;33.196;-97.114;2023-05-02T05:46:04;2.38;;;1.70;;
19621;SDS011;9958;33.196;-97.114;2023-05-02T05:48:32;4.50;;;2.00;;
19621;SDS011;9958;33.196;-97.114;2023-05-02T05:51:04;2.72;;;1.63;;
19621;SDS011;9958;33.196;-97.114;2023-05-02T05:53:33;1.77;;;1.65;;
19621;SDS011;9958;33.196;-97.114;2023-05-02T05:56:07;2.40;;;1.33;;
19621;SDS011;9958;33.196;-97.114;2023-05-02T05:58:36;3.75;;;1.40;;
19621;SDS011;9958;33.196;-97.114;2023-05-02T06:01:04;2.30;;;1.55;;
19621;SDS011;9958;33.196;-97.114;2023-05-02T06:03:34;1.98;;;1.45;;
19621;SDS011;9958;33.196;-97.114;2023-05-02T06:06:04;1.90;;;1.60;;
19621;SDS011;9958;33.196;-97.114;2023-05-02T06:08:32;4.68;;;1.70;;
19621;SDS011;9958;33.196;-97.114;2023-05-02T06:11:01;3.75;;;1.23;;
19621;SDS011;9958;33.196;-97.114;2023-05-02T06:13:29;2.55;;;1.45;;
19621;SDS011;9958;33.196;-97.114;2023-05-02T06:15:59;3.58;;;1.33;;
19621;SDS011;9958;33.196;-97.114;2023-05-02T06:18:28;1.63;;;1.48;;
19621;SDS011;9958;33.196;-97.114;2023-05-02T06:20:56;2.72;;;1.20;;
19621;SDS011;9958;33.196;-97.114;2023-05-02T06:23:26;1.65;;;1.20;;
19621;SDS011;9958;33.196;-97.114;2023-05-02T06:25:54;3.75;;;1.40;;
19621;SDS011;9958;33.196;-97.114;2023-05-02T06:28:26;1.17;;;1.10;;
19621;SDS011;9958;33.196;-97.114;2023-05-02T06:30:58;2.97;;;1.23;;
19621;SDS011;9958;33.196;-97.114;2023-05-02T06:33:27;2.08;;;1.10;;
19621;SDS011;9958;33.196;-97.114;2023-05-02T06:35:55;2.88;;;1.65;;
19621;SDS011;9958;33.196;-97.114;2023-05-02T06:38:26;1.08;;;1.02;;
19621;SDS011;9958;33.196;-97.114;2023-05-02T06:40:54;1.80;;;0.98;;
19621;SDS011;9958;33.196;-97.114;2023-05-02T06:43:22;1.20;;;1.10;;
19621;SDS011;9958;33.196;-97.114;2023-05-02T06:45:51;3.85;;;1.20;;
19621;SDS011;9958;33.196;-97.114;2023-05-02T06:48:20;1.48;;;1.15;;
19621;SDS011;9958;33.196;-97.114;2023-05-02T06:50:50;1.63;;;1.38;;
19621;SDS011;9958;33.196;-97.114;2023-05-02T06:53:19;2.40;;;1.48;;
19621;SDS011;9958;33.196;-97.114;2023-05-02T06:55:49;2.65;;;1.73;;
19621;SDS011;9958;33.196;-97.114;2023-05-02T06:58:17;3.35;;;1.30;;
19621;SDS011;9958;33.196;-97.114;2023-05-02T07:00:46;1.77;;;1.60;;
19621;SDS011;9958;33.196;-97.114;2023-05-02T07:03:14;1.55;;;1.30;;
19621;SDS011;9958;33.196;-97.114;2023-05-02T07:05:43;5.45;;;1.38;;
19621;SDS011;9958;33.196;-97.114;2023-05-02T07:08:11;1.50;;;1.30;;
19621;SDS011;9958;33.196;-97.114;2023-05-02T07:10:39;3.75;;;1.17;;
19621;SDS011;9958;33.196;-97.114;2023-05-02T07:13:09;3.50;;;1.30;;
19621;SDS011;9958;33.196;-97.114;2023-05-02T07:15:38;2.55;;;1.17;;
19621;SDS011;9958;33.196;-97.114;2023-05-02T07:18:06;1.98;;;1.30;;
19621;SDS011;9958;33.196;-97.114;2023-05-02T07:20:35;1.92;;;1.35;;
19621;SDS011;9958;33.196;-97.114;2023-05-02T07:23:05;1.30;;;1.20;;
19621;SDS011;9958;33.196;-97.114;2023-05-02T07:25:34;5.13;;;1.55;;
19621;SDS011;9958;33.196;-97.114;2023-05-02T07:28:04;3.05;;;0.95;;
19621;SDS011;9958;33.196;-97.114;2023-05-02T07:30:34;3.83;;;1.30;;
19621;SDS011;9958;33.196;-97.114;2023-05-02T07:33:02;1.42;;;1.27;;
19621;SDS011;9958;33.196;-97.114;2023-05-02T07:35:31;2.25;;;1.40;;
19621;SDS011;9958;33.196;-97.114;2023-05-02T07:38:00;1.55;;;1.40;;
19621;SDS011;9958;33.196;-97.114;2023-05-02T07:40:28;1.83;;;1.30;;
19621;SDS011;9958;33.196;-97.114;2023-05-02T07:42:57;2.45;;;1.33;;
19621;SDS011;9958;33.196;-97.114;2023-05-02T07:45:27;2.08;;;1.40;;
19621;SDS011;9958;33.196;-97.114;2023-05-02T07:47:57;1.10;;;1.00;;
19621;SDS011;9958;33.196;-97.114;2023-05-02T07:50:25;5.20;;;1.60;;
19621;SDS011;9958;33.196;-97.114;2023-05-02T07:52:54;1.48;;;1.38;;
19621;SDS011;9958;33.196;-97.114;2023-05-02T07:55:22;2.22;;;1.30;;
19621;SDS011;9958;33.196;-97.114;2023-05-02T07:57:52;3.70;;;1.20;;
19621;SDS011;9958;33.196;-97.114;2023-05-02T08:00:20;2.75;;;1.20;;
19621;SDS011;9958;33.196;-97.114;2023-05-02T08:02:49;4.07;;;1.50;;
19621;SDS011;9958;33.196;-97.114;2023-05-02T08:05:19;2.35;;;1.58;;
19621;SDS011;9958;33.196;-97.114;2023-05-02T08:07:47;1.35;;;1.25;;
19621;SDS011;9958;33.196;-97.114;2023-05-02T08:10:16;1.30;;;1.20;;
19621;SDS011;9958;33.196;-97.114;2023-05-02T08:12:44;4.53;;;1.80;;
19621;SDS011;9958;33.196;-97.114;2023-05-02T08:15:13;3.28;;;1.60;;
19621;SDS011;9958;33.196;-97.114;2023-05-02T08:17:41;1.85;;;1.40;;
19621;SDS011;9958;33.196;-97.114;2023-05-02T08:20:10;1.45;;;1.33;;
19621;SDS011;9958;33.196;-97.114;2023-05-02T08:22:40;1.48;;;1.33;;
19621;SDS011;9958;33.196;-97.114;2023-05-02T08:25:08;1.30;;;1.20;;
19621;SDS011;9958;33.196;-97.114;2023-05-02T08:27:37;2.38;;;1.42;;
19621;SDS011;9958;33.196;-97.114;2023-05-02T08:30:06;1.60;;;1.15;;
19621;SDS011;9958;33.196;-97.114;2023-05-02T08:32:35;3.13;;;1.67;;
19621;SDS011;9958;33.196;-97.114;2023-05-02T08:35:03;1.98;;;1.50;;
19621;SDS011;9958;33.196;-97.114;2023-05-02T08:37:32;1.63;;;1.52;;
19621;SDS011;9958;33.196;-97.114;2023-05-02T08:40:03;1.92;;;1.65;;
19621;SDS011;9958;33.196;-97.114;2023-05-02T08:42:32;1.48;;;1.38;;
19621;SDS011;9958;33.196;-97.114;2023-05-02T08:45:01;2.72;;;1.27;;
19621;SDS011;9958;33.196;-97.114;2023-05-02T08:47:30;1.67;;;1.58;;
19621;SDS011;9958;33.196;-97.114;2023-05-02T08:49:59;1.50;;;1.40;;
19621;SDS011;9958;33.196;-97.114;2023-05-02T08:52:28;2.28;;;1.40;;
19621;SDS011;9958;33.196;-97.114;2023-05-02T08:54:58;3.38;;;1.70;;
19621;SDS011;9958;33.196;-97.114;2023-05-02T08:57:29;2.97;;;1.85;;
19621;SDS011;9958;33.196;-97.114;2023-05-02T08:59:58;1.70;;;1.42;;
19621;SDS011;9958;33.196;-97.114;2023-05-02T09:02:32;3.65;;;1.63;;
19621;SDS011;9958;33.196;-97.114;2023-05-02T09:05:18;2.90;;;1.75;;
19621;SDS011;9958;33.196;-97.114;2023-05-02T09:07:50;3.75;;;1.60;;
19621;SDS011;9958;33.196;-97.114;2023-05-02T09:10:18;1.92;;;1.52;;
19621;SDS011;9958;33.196;-97.114;2023-05-02T09:12:52;1.92;;;1.52;;
19621;SDS011;9958;33.196;-97.114;2023-05-02T09:15:20;2.05;;;1.50;;
19621;SDS011;9958;33.196;-97.114;2023-05-02T09:17:49;2.65;;;1.92;;
19621;SDS011;9958;33.196;-97.114;2023-05-02T09:20:17;4.63;;;1.40;;
19621;SDS011;9958;33.196;-97.114;2023-05-02T09:22:49;2.05;;;1.67;;
19621;SDS011;9958;33.196;-97.114;2023-05-02T09:25:18;1.92;;;1.73;;
19621;SDS011;9958;33.196;-97.114;2023-05-02T09:27:50;1.95;;;1.45;;
19621;SDS011;9958;33.196;-97.114;2023-05-02T09:30:22;5.82;;;2.00;;
19621;SDS011;9958;33.196;-97.114;2023-05-02T09:32:51;3.33;;;1.60;;
19621;SDS011;9958;33.196;-97.114;2023-05-02T09:35:20;2.20;;;1.30;;
19621;SDS011;9958;33.196;-97.114;2023-05-02T09:37:52;4.38;;;1.50;;
19621;SDS011;9958;33.196;-97.114;2023-05-02T09:40:20;1.42;;;1.30;;
19621;SDS011;9958;33.196;-97.114;2023-05-02T09:42:50;1.33;;;1.17;;
19621;SDS011;9958;33.196;-97.114;2023-05-02T09:45:20;2.03;;;1.48;;
19621;SDS011;9958;33.196;-97.114;2023-05-02T09:47:49;2.25;;;1.50;;
19621;SDS011;9958;33.196;-97.114;2023-05-02T09:50:34;1.98;;;1.40;;
19621;SDS011;9958;33.196;-97.114;2023-05-02T09:53:03;2.10;;;1.40;;
19621;SDS011;9958;33.196;-97.114;2023-05-02T09:55:32;1.48;;;1.10;;
19621;SDS011;9958;33.196;-97.114;2023-05-02T09:58:01;1.88;;;1.30;;
19621;SDS011;9958;33.196;-97.114;2023-05-02T10:00:39;3.85;;;1.90;;
19621;SDS011;9958;33.196;-97.114;2023-05-02T10:03:08;2.13;;;1.42;;
19621;SDS011;9958;33.196;-97.114;2023-05-02T10:05:37;1.50;;;1.40;;
19621;SDS011;9958;33.196;-97.114;2023-05-02T10:08:07;4.03;;;1.80;;
19621;SDS011;9958;33.196;-97.114;2023-05-02T10:10:36;1.92;;;1.50;;
19621;SDS011;9958;33.196;-97.114;2023-05-02T10:13:06;2.60;;;1.70;;
19621;SDS011;9958;33.196;-97.114;2023-05-02T10:15:36;2.08;;;1.48;;
19621;SDS011;9958;33.196;-97.114;2023-05-02T10:18:11;1.63;;;1.45;;
19621;SDS011;9958;33.196;-97.114;2023-05-02T10:20:42;2.55;;;1.67;;
19621;SDS011;9958;33.196;-97.114;2023-05-02T10:23:15;1.67;;;1.58;;
19621;SDS011;9958;33.196;-97.114;2023-05-02T10:25:45;4.25;;;1.70;;
19621;SDS011;9958;33.196;-97.114;2023-05-02T10:28:13;2.55;;;1.77;;
19621;SDS011;9958;33.196;-97.114;2023-05-02T10:30:44;2.05;;;1.80;;
19621;SDS011;9958;33.196;-97.114;2023-05-02T10:33:13;1.63;;;1.50;;
19621;SDS011;9958;33.196;-97.114;2023-05-02T10:35:44;2.00;;;1.63;;
19621;SDS011;9958;33.196;-97.114;2023-05-02T10:38:13;2.70;;;1.38;;
19621;SDS011;9958;33.196;-97.114;2023-05-02T10:40:46;3.00;;;1.70;;
19621;SDS011;9958;33.196;-97.114;2023-05-02T10:43:26;3.20;;;1.70;;
19621;SDS011;9958;33.196;-97.114;2023-05-02T10:45:58;2.83;;;1.60;;
19621;SDS011;9958;33.196;-97.114;2023-05-02T10:48:28;3.53;;;1.77;;
19621;SDS011;9958;33.196;-97.114;2023-05-02T10:50:56;1.90;;;1.48;;
19621;SDS011;9958;33.196;-97.114;2023-05-02T10:53:27;4.03;;;1.60;;
19621;SDS011;9958;33.196;-97.114;2023-05-02T10:56:08;4.47;;;1.30;;
19621;SDS011;9958;33.196;-97.114;2023-05-02T10:58:42;2.15;;;1.50;;
19621;SDS011;9958;33.196;-97.114;2023-05-02T11:04:07;3.47;;;1.63;;
19621;SDS011;9958;33.196;-97.114;2023-05-02T11:07:15;2.58;;;1.58;;
19621;SDS011;9958;33.196;-97.114;2023-05-02T11:09:43;1.40;;;1.30;;
19621;SDS011;9958;33.196;-97.114;2023-05-02T11:12:12;2.92;;;1.10;;
19621;SDS011;9958;33.196;-97.114;2023-05-02T11:15:10;2.42;;;1.38;;
19621;SDS011;9958;33.196;-97.114;2023-05-02T11:20:27;1.35;;;1.20;;
19621;SDS011;9958;33.196;-97.114;2023-05-02T11:22:57;1.60;;;1.10;;
19621;SDS011;9958;33.196;-97.114;2023-05-02T11:25:49;2.92;;;1.60;;
19621;SDS011;9958;33.196;-97.114;2023-05-02T11:34:43;3.55;;;1.42;;
19621;SDS011;9958;33.196;-97.114;2023-05-02T11:37:15;1.50;;;1.40;;
19621;SDS011;9958;33.196;-97.114;2023-05-02T11:39:43;2.33;;;1.40;;
19621;SDS011;9958;33.196;-97.114;2023-05-02T11:42:26;1.60;;;1.50;;
19621;SDS011;9958;33.196;-97.114;2023-05-02T11:44:56;4.03;;;1.80;;
19621;SDS011;9958;33.196;-97.114;2023-05-02T11:47:25;8.82;;;2.35;;
19621;SDS011;9958;33.196;-97.114;2023-05-02T11:49:56;1.60;;;1.48;;
19621;SDS011;9958;33.196;-97.114;2023-05-02T11:52:25;4.28;;;2.13;;
19621;SDS011;9958;33.196;-97.114;2023-05-02T11:54:55;5.60;;;1.95;;
19621;SDS011;9958;33.196;-97.114;2023-05-02T11:57:23;2.15;;;1.45;;
19621;SDS011;9958;33.196;-97.114;2023-05-02T11:59:52;3.08;;;1.67;;
19621;SDS011;9958;33.196;-97.114;2023-05-02T12:02:34;3.78;;;1.85;;
19621;SDS011;9958;33.196;-97.114;2023-05-02T12:05:05;2.30;;;1.70;;
19621;SDS011;9958;33.196;-97.114;2023-05-02T12:07:34;2.08;;;1.40;;
19621;SDS011;9958;33.196;-97.114;2023-05-02T12:10:04;4.57;;;1.80;;
19621;SDS011;9958;33.196;-97.114;2023-05-02T12:12:33;4.78;;;1.58;;
19621;SDS011;9958;33.196;-97.114;2023-05-02T12:15:02;2.25;;;1.90;;
19621;SDS011;9958;33.196;-97.114;2023-05-02T12:17:31;1.38;;;1.30;;
19621;SDS011;9958;33.196;-97.114;2023-05-02T12:20:03;2.28;;;2.05;;
19621;SDS011;9958;33.196;-97.114;2023-05-02T12:22:35;3.47;;;2.38;;
19621;SDS011;9958;33.196;-97.114;2023-05-02T12:25:03;2.22;;;1.70;;
19621;SDS011;9958;33.196;-97.114;2023-05-02T12:27:33;2.30;;;1.65;;
19621;SDS011;9958;33.196;-97.114;2023-05-02T12:30:02;6.10;;;1.55;;
19621;SDS011;9958;33.196;-97.114;2023-05-02T12:32:32;3.28;;;1.70;;
19621;SDS011;9958;33.196;-97.114;2023-05-02T12:35:02;1.85;;;1.63;;
19621;SDS011;9958;33.196;-97.114;2023-05-02T12:37:32;4.60;;;1.42;;
19621;SDS011;9958;33.196;-97.114;2023-05-02T12:40:01;2.22;;;1.60;;
19621;SDS011;9958;33.196;-97.114;2023-05-02T12:42:29;1.92;;;1.55;;
19621;SDS011;9958;33.196;-97.114;2023-05-02T12:44:59;2.17;;;1.20;;
19621;SDS011;9958;33.196;-97.114;2023-05-02T12:47:27;4.72;;;2.00;;
19621;SDS011;9958;33.196;-97.114;2023-05-02T12:49:57;2.53;;;1.70;;
19621;SDS011;9958;33.196;-97.114;2023-05-02T12:55:22;3.53;;;1.70;;
19621;SDS011;9958;33.196;-97.114;2023-05-02T12:57:58;2.75;;;1.75;;
19621;SDS011;9958;33.196;-97.114;2023-05-02T13:00:27;1.45;;;1.35;;
19621;SDS011;9958;33.196;-97.114;2023-05-02T13:02:56;4.85;;;1.42;;
19621;SDS011;9958;33.196;-97.114;2023-05-02T13:05:25;3.20;;;1.38;;
19621;SDS011;9958;33.196;-97.114;2023-05-02T13:07:55;1.65;;;1.30;;
19621;SDS011;9958;33.196;-97.114;2023-05-02T13:10:23;3.35;;;1.50;;
19621;SDS011;9958;33.196;-97.114;2023-05-02T13:12:52;2.53;;;1.80;;
19621;SDS011;9958;33.196;-97.114;2023-05-02T13:15:21;3.85;;;1.63;;
19621;SDS011;9958;33.196;-97.114;2023-05-02T13:17:50;2.33;;;1.40;;
19621;SDS011;9958;33.196;-97.114;2023-05-02T13:20:18;1.83;;;1.60;;
19621;SDS011;9958;33.196;-97.114;2023-05-02T13:22:47;2.38;;;1.20;;
19621;SDS011;9958;33.196;-97.114;2023-05-02T13:25:17;1.48;;;1.27;;
19621;SDS011;9958;33.196;-97.114;2023-05-02T13:27:45;2.15;;;1.35;;
19621;SDS011;9958;33.196;-97.114;2023-05-02T13:30:13;2.78;;;1.67;;
19621;SDS011;9958;33.196;-97.114;2023-05-02T13:32:42;2.63;;;1.10;;
19621;SDS011;9958;33.196;-97.114;2023-05-02T13:35:10;2.30;;;1.35;;
19621;SDS011;9958;33.196;-97.114;2023-05-02T13:37:40;1.67;;;1.00;;
19621;SDS011;9958;33.196;-97.114;2023-05-02T13:40:08;2.88;;;1.08;;
19621;SDS011;9958;33.196;-97.114;2023-05-02T13:42:39;1.80;;;1.00;;
19621;SDS011;9958;33.196;-97.114;2023-05-02T13:45:08;2.65;;;1.17;;
19621;SDS011;9958;33.196;-97.114;2023-05-02T13:47:37;2.65;;;0.88;;
19621;SDS011;9958;33.196;-97.114;2023-05-02T13:50:05;4.10;;;0.95;;
19621;SDS011;9958;33.196;-97.114;2023-05-02T13:52:35;2.22;;;1.10;;
19621;SDS011;9958;33.196;-97.114;2023-05-02T13:55:03;2.30;;;1.00;;
19621;SDS011;9958;33.196;-97.114;2023-05-02T13:57:32;3.30;;;1.20;;
19621;SDS011;9958;33.196;-97.114;2023-05-02T14:00:02;1.70;;;1.20;;
19621;SDS011;9958;33.196;-97.114;2023-05-02T14:02:34;2.35;;;1.20;;
19621;SDS011;9958;33.196;-97.114;2023-05-02T14:05:02;1.52;;;1.08;;
19621;SDS011;9958;33.196;-97.114;2023-05-02T14:07:31;2.17;;;1.00;;
19621;SDS011;9958;33.196;-97.114;2023-05-02T14:09:59;1.08;;;1.02;;
19621;SDS011;9958;33.196;-97.114;2023-05-02T14:12:28;1.00;;;0.90;;
19621;SDS011;9958;33.196;-97.114;2023-05-02T14:14:56;1.77;;;1.00;;
19621;SDS011;9958;33.196;-97.114;2023-05-02T14:17:26;3.40;;;1.00;;
19621;SDS011;9958;33.196;-97.114;2023-05-02T14:19:56;6.18;;;1.38;;
19621;SDS011;9958;33.196;-97.114;2023-05-02T14:22:24;1.10;;;1.00;;
19621;SDS011;9958;33.196;-97.114;2023-05-02T14:24:52;1.00;;;0.70;;
19621;SDS011;9958;33.196;-97.114;2023-05-02T14:27:21;2.35;;;0.90;;
19621;SDS011;9958;33.196;-97.114;2023-05-02T14:29:50;3.13;;;0.80;;
19621;SDS011;9958;33.196;-97.114;2023-05-02T14:32:18;3.55;;;0.95;;
19621;SDS011;9958;33.196;-97.114;2023-05-02T14:34:49;5.93;;;1.05;;
19621;SDS011;9958;33.196;-97.114;2023-05-02T14:37:17;0.98;;;0.82;;
19621;SDS011;9958;33.196;-97.114;2023-05-02T14:39:45;4.05;;;1.10;;
19621;SDS011;9958;33.196;-97.114;2023-05-02T14:42:17;1.10;;;0.95;;
19621;SDS011;9958;33.196;-97.114;2023-05-02T14:44:45;1.55;;;0.98;;
19621;SDS011;9958;33.196;-97.114;2023-05-02T14:47:13;2.50;;;1.15;;
19621;SDS011;9958;33.196;-97.114;2023-05-02T14:49:42;3.28;;;1.33;;
19621;SDS011;9958;33.196;-97.114;2023-05-02T14:52:12;2.97;;;0.95;;
19621;SDS011;9958;33.196;-97.114;2023-05-02T14:54:40;5.05;;;1.30;;
19621;SDS011;9958;33.196;-97.114;2023-05-02T14:57:08;6.30;;;1.42;;
19621;SDS011;9958;33.196;-97.114;2023-05-02T14:59:37;1.88;;;0.90;;
19621;SDS011;9958;33.196;-97.114;2023-05-02T15:02:06;2.00;;;1.00;;
19621;SDS011;9958;33.196;-97.114;2023-05-02T15:04:34;2.47;;;1.02;;
19621;SDS011;9958;33.196;-97.114;2023-05-02T15:07:03;2.95;;;1.48;;